Tres Hombres — 9LD2206 — position and weather

sailwx.info

Track history (hours):
 
Tides and Currents Weather Stations Pressure Air Temp Water Temp Dewpoint Dewpoint Depression Visibility Wind Speed Wind Dir Waves Ship Positions

Tres Hombres

Ship's website: http://www.zeilendehandelsvaart.nl/

Last reported at 2014-Oct-25 10:31 UTC. Time now 2014-Oct-25 11:22 UTC.
Position N 50°24' W 003°31'.

Length 32 m.

Type: Sailing vessel. MMSI: 667905000.

Date/timePositionNaut miles runAvg speedWind from/ knotsBaromVisibWave heightAir tempDewpointWater temp
2014-Oct-25 10:31N 50°24' W 003°31'0 0.0
2014-Oct-25 09:28N 50°24' W 003°31'0 0.0
2014-Oct-25 08:31N 50°24' W 003°31'0 0.0
2014-Oct-25 07:31N 50°24' W 003°31'0 0.0
2014-Oct-25 06:31N 50°24' W 003°31'0 0.0
2014-Oct-25 05:31N 50°24' W 003°31'0 0.0
2014-Oct-25 04:31N 50°24' W 003°31'0 0.0
2014-Oct-25 03:33N 50°24' W 003°31'0 0.0
2014-Oct-25 02:33N 50°24' W 003°31'0 0.0
2014-Oct-25 01:33N 50°24' W 003°31'0 0.0
2014-Oct-25 00:33N 50°24' W 003°31'0 0.0
2014-Oct-24 23:33N 50°24' W 003°31'0 0.0
2014-Oct-24 22:33N 50°24' W 003°31'0 0.0
2014-Oct-24 21:33N 50°24' W 003°31'0 0.0
2014-Oct-24 20:33N 50°24' W 003°31'0 0.0
2014-Oct-24 19:33N 50°24' W 003°31'0 0.0
2014-Oct-24 18:33N 50°24' W 003°31'0 0.0
2014-Oct-24 17:33N 50°24' W 003°31'0 0.0
2014-Oct-24 16:33N 50°24' W 003°31'0 0.0
2014-Oct-24 15:33N 50°24' W 003°31'0 0.0
2014-Oct-24 14:33N 50°24' W 003°31'3 2.7
2014-Oct-24 13:33N 50°27' W 003°32'4 1.9
2014-Oct-24 11:16N 50°28' W 003°25'2 3.2
2014-Oct-24 10:33N 50°30' W 003°27'4 3.7
2014-Oct-24 09:33N 50°29' W 003°21'5 5.4
2014-Oct-24 08:33N 50°28' W 003°13'5 4.9
2014-Oct-24 07:31N 50°26' W 003°06'3 3.6
2014-Oct-24 06:33N 50°24' W 003°01'2 1.6
2014-Oct-24 05:32N 50°25' W 003°03'5 5.0
2014-Oct-24 04:33N 50°30' W 003°07'3 2.7
2014-Oct-24 03:33N 50°32' W 003°09'2 1.8
2014-Oct-24 02:32N 50°34' W 003°10'2 1.8
2014-Oct-24 01:33N 50°33' W 003°07'3 3.1
2014-Oct-24 00:31N 50°31' W 003°03'3 2.7
2014-Oct-23 23:33N 50°30' W 002°59'3 2.8
2014-Oct-23 22:30N 50°29' W 002°55'6 4.2
2014-Oct-23 20:58N 50°25' W 002°47'17 5.7
2014-Oct-23 18:00N 50°12' W 002°30'29 6.8 240 / 201019.1 16.912.916.7
2014-Oct-23 13:44N 49°56' W 001°52'2010.7
2014-Oct-23 11:50N 49°48' W 001°23'44 6.9
2014-Oct-23 05:25N 49°25' W 000°24'4 4.8
2014-Oct-23 04:33N 49°29' W 000°27'2 2.4
2014-Oct-23 03:33N 49°29' W 000°23'5 4.6
2014-Oct-23 02:32N 49°26' W 000°17'5 4.9
2014-Oct-23 01:33N 49°23' W 000°11'2 2.5
2014-Oct-23 00:33N 49°23' W 000°08'5 5.3
2014-Oct-22 23:33N 49°28' W 000°06'7 7.1
2014-Oct-22 22:33N 49°35' W 000°03'8 6.2
2014-Oct-22 21:20N 49°42' E 000°00'38 6.5
2014-Oct-22 15:25N 50°20' E 000°07'0 0.0
2014-Oct-22 15:23N 50°20' E 000°07'30601.1
2014-Oct-22 15:20N 50°22' W 000°40'5621.8
2014-Oct-22 12:46N 50°34' E 000°46'39 6.2
2014-Oct-22 06:32N 51°05' E 001°22'6 2.8
2014-Oct-22 04:22N 51°04' E 001°31'6 7.2
2014-Oct-22 03:33N 51°09' E 001°36'9 9.0
2014-Oct-22 02:33N 51°17' E 001°41'9 9.2
2014-Oct-22 01:33N 51°25' E 001°48'8 8.1
2014-Oct-22 00:33N 51°32' E 001°55'24 8.1
2014-Oct-21 21:33N 51°55' E 002°06'1110.6
2014-Oct-21 20:33N 52°06' E 002°09'1911.0
2014-Oct-21 18:49N 52°25' E 002°10'102 8.8
2014-Oct-21 07:14N 54°04' E 001°26'83 4.3
2014-Oct-20 12:04N 55°17' E 000°19'141 7.6
2014-Oct-19 17:33N 57°21' W 001°41'7 7.2
2014-Oct-19 16:33N 57°28' W 001°44'7 7.1
2014-Oct-19 15:33N 57°35' W 001°46'7 6.6
2014-Oct-19 14:33N 57°40' W 001°54'5 5.0
2014-Oct-19 13:33N 57°42' W 002°02'0 0.1
2014-Oct-19 08:26N 57°42' W 002°03'4 4.9
2014-Oct-19 07:33N 57°42' W 001°55'6 6.5
2014-Oct-19 06:33N 57°38' W 001°45'8 8.1
2014-Oct-19 05:33N 57°35' W 001°31'160 7.3
2014-Oct-18 07:44N 57°47' E 003°27'88 7.9
2014-Oct-17 20:33N 58°51' E 005°21'5 4.9
2014-Oct-17 19:33N 58°56' E 005°24'4 4.3
2014-Oct-17 18:32N 58°60' E 005°29'3 3.1
2014-Oct-17 17:33N 59°02' E 005°33'1 0.9
2014-Oct-17 16:32N 59°03' E 005°34'1 0.5
2014-Oct-17 15:26N 59°03' E 005°34'0 0.3
2014-Oct-17 14:32N 59°03' E 005°35'0 0.4
2014-Oct-17 13:31N 59°03' E 005°35'3 3.5
2014-Oct-17 12:33N 59°01' E 005°40'3 2.8
2014-Oct-17 11:33N 58°59' E 005°44'1 0.6
2014-Oct-17 10:32N 58°58' E 005°44'0 0.0
2014-Oct-17 09:32N 58°58' E 005°44'0 0.0
2014-Oct-17 08:32N 58°58' E 005°44'0 0.0
2014-Oct-17 07:32N 58°58' E 005°44'0 0.0
2014-Oct-17 06:32N 58°58' E 005°44'0 0.0
2014-Oct-17 05:29N 58°58' E 005°44'0 0.0
2014-Oct-17 04:32N 58°58' E 005°44'0 0.0
2014-Oct-17 03:32N 58°58' E 005°44'0 0.0
2014-Oct-17 02:32N 58°58' E 005°44'0 0.0
2014-Oct-17 01:32N 58°58' E 005°44'0 0.0
2014-Oct-17 00:32N 58°58' E 005°44'0 0.0
2014-Oct-16 23:32N 58°58' E 005°44'0 0.0
2014-Oct-16 22:32N 58°58' E 005°44'0 0.0
2014-Oct-16 21:32N 58°58' E 005°44'0 0.0
2014-Oct-16 20:32N 58°58' E 005°44'0 0.0
2014-Oct-16 19:32N 58°58' E 005°44'0 0.0
2014-Oct-16 18:32N 58°58' E 005°44'0 0.0
2014-Oct-16 17:32N 58°58' E 005°44'0 0.0
2014-Oct-16 16:32N 58°58' E 005°44'0 0.0
2014-Oct-16 15:32N 58°58' E 005°44'0 0.0
2014-Oct-16 14:32N 58°58' E 005°44'0 0.0
2014-Oct-16 13:32N 58°58' E 005°44'0 0.0
2014-Oct-16 12:32N 58°58' E 005°44'0 0.0
2014-Oct-16 11:32N 58°58' E 005°44'0 0.0
2014-Oct-16 10:32N 58°58' E 005°44'0 0.0
2014-Oct-16 09:32N 58°58' E 005°44'0 0.0
2014-Oct-16 08:32N 58°58' E 005°44'0 0.0
2014-Oct-16 07:32N 58°58' E 005°44'0 0.0
2014-Oct-16 06:32N 58°58' E 005°44'0 0.0
2014-Oct-16 05:29N 58°58' E 005°44'0 0.0
2014-Oct-16 04:32N 58°58' E 005°44'0 0.0
2014-Oct-16 03:32N 58°58' E 005°44'0 0.0
2014-Oct-16 02:32N 58°58' E 005°44'0 0.0
2014-Oct-16 01:32N 58°58' E 005°44'0 0.0
2014-Oct-16 00:32N 58°58' E 005°44'0 0.0
2014-Oct-15 23:32N 58°58' E 005°44'0 0.0
2014-Oct-15 22:32N 58°58' E 005°44'0 0.0
2014-Oct-15 21:32N 58°58' E 005°44'0 0.0
2014-Oct-15 20:32N 58°58' E 005°44'0 0.0
2014-Oct-15 19:32N 58°58' E 005°44'0 0.0
2014-Oct-15 18:32N 58°58' E 005°44'0 0.0
2014-Oct-15 17:32N 58°58' E 005°44'0 0.0
2014-Oct-15 16:32N 58°58' E 005°44'0 0.0
2014-Oct-15 15:32N 58°58' E 005°44'0 0.0
2014-Oct-15 14:32N 58°58' E 005°44'0 0.0
2014-Oct-15 13:32N 58°58' E 005°44'0 0.0
2014-Oct-15 12:32N 58°58' E 005°44'0 0.0
2014-Oct-15 11:32N 58°58' E 005°44'0 0.0
2014-Oct-15 10:32N 58°58' E 005°44'  
Track history (hours):
 
Tides and Currents Weather Stations Pressure Air Temp Water Temp Dewpoint Dewpoint Depression Visibility Wind Speed Wind Dir Waves Ship Positions

Tres Hombres

Ship's website: http://www.zeilendehandelsvaart.nl/

Last reported at 2014-Oct-25 10:31 UTC. Time now 2014-Oct-25 11:22 UTC.
Position N 50°24' W 003°31'.

Length 32 m.

Type: Sailing vessel. MMSI: 667905000.

Date/timePositionNaut miles runAvg speedWind from/ knotsBaromVisibWave heightAir tempDewpointWater temp
2014-Oct-25 10:31N 50°24' W 003°31'0 0.0
2014-Oct-25 09:28N 50°24' W 003°31'0 0.0
2014-Oct-25 08:31N 50°24' W 003°31'0 0.0
2014-Oct-25 07:31N 50°24' W 003°31'0 0.0
2014-Oct-25 06:31N 50°24' W 003°31'0 0.0
2014-Oct-25 05:31N 50°24' W 003°31'0 0.0
2014-Oct-25 04:31N 50°24' W 003°31'0 0.0
2014-Oct-25 03:33N 50°24' W 003°31'0 0.0
2014-Oct-25 02:33N 50°24' W 003°31'0 0.0
2014-Oct-25 01:33N 50°24' W 003°31'0 0.0
2014-Oct-25 00:33N 50°24' W 003°31'0 0.0
2014-Oct-24 23:33N 50°24' W 003°31'0 0.0
2014-Oct-24 22:33N 50°24' W 003°31'0 0.0
2014-Oct-24 21:33N 50°24' W 003°31'0 0.0
2014-Oct-24 20:33N 50°24' W 003°31'0 0.0
2014-Oct-24 19:33N 50°24' W 003°31'0 0.0
2014-Oct-24 18:33N 50°24' W 003°31'0 0.0
2014-Oct-24 17:33N 50°24' W 003°31'0 0.0
2014-Oct-24 16:33N 50°24' W 003°31'0 0.0
2014-Oct-24 15:33N 50°24' W 003°31'0 0.0
2014-Oct-24 14:33N 50°24' W 003°31'3 2.7
2014-Oct-24 13:33N 50°27' W 003°32'4 1.9
2014-Oct-24 11:16N 50°28' W 003°25'2 3.2
2014-Oct-24 10:33N 50°30' W 003°27'4 3.7
2014-Oct-24 09:33N 50°29' W 003°21'5 5.4
2014-Oct-24 08:33N 50°28' W 003°13'5 4.9
2014-Oct-24 07:31N 50°26' W 003°06'3 3.6
2014-Oct-24 06:33N 50°24' W 003°01'2 1.6
2014-Oct-24 05:32N 50°25' W 003°03'5 5.0
2014-Oct-24 04:33N 50°30' W 003°07'3 2.7
2014-Oct-24 03:33N 50°32' W 003°09'2 1.8
2014-Oct-24 02:32N 50°34' W 003°10'2 1.8
2014-Oct-24 01:33N 50°33' W 003°07'3 3.1
2014-Oct-24 00:31N 50°31' W 003°03'3 2.7
2014-Oct-23 23:33N 50°30' W 002°59'3 2.8
2014-Oct-23 22:30N 50°29' W 002°55'6 4.2
2014-Oct-23 20:58N 50°25' W 002°47'17 5.7
2014-Oct-23 18:00N 50°12' W 002°30'29 6.8 240 / 201019.1 16.912.916.7
2014-Oct-23 13:44N 49°56' W 001°52'2010.7
2014-Oct-23 11:50N 49°48' W 001°23'44 6.9
2014-Oct-23 05:25N 49°25' W 000°24'4 4.8
2014-Oct-23 04:33N 49°29' W 000°27'2 2.4
2014-Oct-23 03:33N 49°29' W 000°23'5 4.6
2014-Oct-23 02:32N 49°26' W 000°17'5 4.9
2014-Oct-23 01:33N 49°23' W 000°11'2 2.5
2014-Oct-23 00:33N 49°23' W 000°08'5 5.3
2014-Oct-22 23:33N 49°28' W 000°06'7 7.1
2014-Oct-22 22:33N 49°35' W 000°03'8 6.2
2014-Oct-22 21:20N 49°42' E 000°00'38 6.5
2014-Oct-22 15:25N 50°20' E 000°07'0 0.0
2014-Oct-22 15:23N 50°20' E 000°07'30601.1
2014-Oct-22 15:20N 50°22' W 000°40'5621.8
2014-Oct-22 12:46N 50°34' E 000°46'39 6.2
2014-Oct-22 06:32N 51°05' E 001°22'6 2.8
2014-Oct-22 04:22N 51°04' E 001°31'6 7.2
2014-Oct-22 03:33N 51°09' E 001°36'9 9.0
2014-Oct-22 02:33N 51°17' E 001°41'9 9.2
2014-Oct-22 01:33N 51°25' E 001°48'8 8.1
2014-Oct-22 00:33N 51°32' E 001°55'24 8.1
2014-Oct-21 21:33N 51°55' E 002°06'1110.6
2014-Oct-21 20:33N 52°06' E 002°09'1911.0
2014-Oct-21 18:49N 52°25' E 002°10'102 8.8
2014-Oct-21 07:14N 54°04' E 001°26'83 4.3
2014-Oct-20 12:04N 55°17' E 000°19'141 7.6
2014-Oct-19 17:33N 57°21' W 001°41'7 7.2
2014-Oct-19 16:33N 57°28' W 001°44'7 7.1
2014-Oct-19 15:33N 57°35' W 001°46'7 6.6
2014-Oct-19 14:33N 57°40' W 001°54'5 5.0
2014-Oct-19 13:33N 57°42' W 002°02'0 0.1
2014-Oct-19 08:26N 57°42' W 002°03'4 4.9
2014-Oct-19 07:33N 57°42' W 001°55'6 6.5
2014-Oct-19 06:33N 57°38' W 001°45'8 8.1
2014-Oct-19 05:33N 57°35' W 001°31'160 7.3
2014-Oct-18 07:44N 57°47' E 003°27'88 7.9
2014-Oct-17 20:33N 58°51' E 005°21'5 4.9
2014-Oct-17 19:33N 58°56' E 005°24'4 4.3
2014-Oct-17 18:32N 58°60' E 005°29'3 3.1
2014-Oct-17 17:33N 59°02' E 005°33'1 0.9
2014-Oct-17 16:32N 59°03' E 005°34'1 0.5
2014-Oct-17 15:26N 59°03' E 005°34'0 0.3
2014-Oct-17 14:32N 59°03' E 005°35'0 0.4
2014-Oct-17 13:31N 59°03' E 005°35'3 3.5
2014-Oct-17 12:33N 59°01' E 005°40'3 2.8
2014-Oct-17 11:33N 58°59' E 005°44'1 0.6
2014-Oct-17 10:32N 58°58' E 005°44'0 0.0
2014-Oct-17 09:32N 58°58' E 005°44'0 0.0
2014-Oct-17 08:32N 58°58' E 005°44'0 0.0
2014-Oct-17 07:32N 58°58' E 005°44'0 0.0
2014-Oct-17 06:32N 58°58' E 005°44'0 0.0
2014-Oct-17 05:29N 58°58' E 005°44'0 0.0
2014-Oct-17 04:32N 58°58' E 005°44'0 0.0
2014-Oct-17 03:32N 58°58' E 005°44'0 0.0
2014-Oct-17 02:32N 58°58' E 005°44'0 0.0
2014-Oct-17 01:32N 58°58' E 005°44'0 0.0
2014-Oct-17 00:32N 58°58' E 005°44'0 0.0
2014-Oct-16 23:32N 58°58' E 005°44'0 0.0
2014-Oct-16 22:32N 58°58' E 005°44'0 0.0
2014-Oct-16 21:32N 58°58' E 005°44'0 0.0
2014-Oct-16 20:32N 58°58' E 005°44'0 0.0
2014-Oct-16 19:32N 58°58' E 005°44'0 0.0
2014-Oct-16 18:32N 58°58' E 005°44'0 0.0
2014-Oct-16 17:32N 58°58' E 005°44'0 0.0
2014-Oct-16 16:32N 58°58' E 005°44'0 0.0
2014-Oct-16 15:32N 58°58' E 005°44'0 0.0
2014-Oct-16 14:32N 58°58' E 005°44'0 0.0
2014-Oct-16 13:32N 58°58' E 005°44'0 0.0
2014-Oct-16 12:32N 58°58' E 005°44'0 0.0
2014-Oct-16 11:32N 58°58' E 005°44'0 0.0
2014-Oct-16 10:32N 58°58' E 005°44'0 0.0
2014-Oct-16 09:32N 58°58' E 005°44'0 0.0
2014-Oct-16 08:32N 58°58' E 005°44'0 0.0
2014-Oct-16 07:32N 58°58' E 005°44'0 0.0
2014-Oct-16 06:32N 58°58' E 005°44'0 0.0
2014-Oct-16 05:29N 58°58' E 005°44'0 0.0
2014-Oct-16 04:32N 58°58' E 005°44'0 0.0
2014-Oct-16 03:32N 58°58' E 005°44'0 0.0
2014-Oct-16 02:32N 58°58' E 005°44'0 0.0
2014-Oct-16 01:32N 58°58' E 005°44'0 0.0
2014-Oct-16 00:32N 58°58' E 005°44'0 0.0
2014-Oct-15 23:32N 58°58' E 005°44'0 0.0
2014-Oct-15 22:32N 58°58' E 005°44'0 0.0
2014-Oct-15 21:32N 58°58' E 005°44'0 0.0
2014-Oct-15 20:32N 58°58' E 005°44'0 0.0
2014-Oct-15 19:32N 58°58' E 005°44'0 0.0
2014-Oct-15 18:32N 58°58' E 005°44'0 0.0
2014-Oct-15 17:32N 58°58' E 005°44'0 0.0
2014-Oct-15 16:32N 58°58' E 005°44'0 0.0
2014-Oct-15 15:32N 58°58' E 005°44'0 0.0
2014-Oct-15 14:32N 58°58' E 005°44'0 0.0
2014-Oct-15 13:32N 58°58' E 005°44'0 0.0
2014-Oct-15 12:32N 58°58' E 005°44'0 0.0
2014-Oct-15 11:32N 58°58' E 005°44'0 0.0
2014-Oct-15 10:32N 58°58' E 005°44'  

Dump ship's entire track history